createdAt,value
2023-04-28T09:24:01.471Z,100578.91
2023-04-28T09:26:51.444Z,100544.00
2023-04-28T09:29:38.823Z,100565.56
2023-04-28T09:32:28.166Z,100562.88
2023-04-28T09:35:14.914Z,100569.53
2023-04-28T09:38:00.855Z,100551.72
2023-04-28T09:40:53.863Z,100549.63
2023-04-28T09:43:40.118Z,100547.03
2023-04-28T09:46:29.715Z,100548.97
2023-04-28T09:49:15.762Z,100539.56
2023-04-28T09:52:14.198Z,100538.91
2023-04-28T09:55:02.094Z,100546.03
2023-04-28T09:57:50.066Z,100541.00
2023-04-28T10:00:36.609Z,100535.50
2023-04-28T10:03:26.077Z,100532.13
2023-04-28T10:06:14.832Z,100540.22
2023-04-28T10:09:01.382Z,100526.25
2023-04-28T10:11:48.507Z,100502.09
2023-04-28T10:14:34.764Z,100521.72
2023-04-28T10:17:22.845Z,100523.78
2023-04-28T10:20:09.024Z,100502.19
2023-04-28T10:23:23.309Z,100526.16
2023-04-28T10:26:11.963Z,100500.88
2023-04-28T10:28:58.467Z,100492.78
2023-04-28T10:32:15.810Z,100506.38
2023-04-28T10:35:21.013Z,100512.56
2023-04-28T10:38:14.940Z,100501.59
2023-04-28T10:41:05.179Z,100457.41
2023-04-28T10:43:51.073Z,100473.75
2023-04-28T10:47:06.870Z,100486.09
2023-04-28T10:49:58.458Z,100486.56
2023-04-28T10:52:44.517Z,100485.75
2023-04-28T10:55:36.355Z,100476.31
2023-04-28T10:58:25.658Z,100474.81
2023-04-28T11:01:37.638Z,100474.25
2023-04-28T11:04:24.585Z,100470.50
2023-04-28T11:07:13.518Z,100474.25
2023-04-28T11:09:59.822Z,100461.31
2023-04-28T11:13:23.603Z,100460.53
2023-04-28T11:16:10.008Z,100452.16
2023-04-28T11:18:56.201Z,100456.34
2023-04-28T11:21:42.407Z,100449.88
2023-04-28T11:24:29.937Z,100444.72
2023-04-28T11:27:24.147Z,100445.50
2023-04-28T11:30:22.854Z,100421.38
2023-04-28T11:33:09.693Z,100446.28
2023-04-28T11:35:55.988Z,100448.84
2023-04-28T11:38:45.407Z,100442.56
2023-04-28T11:41:35.663Z,100439.78
2023-04-28T11:44:24.378Z,100431.19
2023-04-28T11:47:10.345Z,100428.47
2023-04-28T11:49:56.384Z,100398.03
2023-04-28T11:52:53.697Z,100410.69
2023-04-28T11:55:40.438Z,100420.75
2023-04-28T11:58:27.901Z,100421.72
2023-04-28T12:01:15.822Z,100398.56
2023-04-28T12:04:01.998Z,100420.28
2023-04-28T12:06:48.031Z,100418.47
2023-04-28T12:09:35.546Z,100416.03
2023-04-28T12:12:45.137Z,100423.69
2023-04-28T12:15:41.697Z,100414.28
2023-04-28T12:18:27.766Z,100412.31
2023-04-28T12:21:21.291Z,100408.28
2023-04-28T12:24:18.722Z,100396.44
2023-04-28T12:27:25.017Z,100365.03
2023-04-28T12:30:20.808Z,100338.66
2023-04-28T12:33:22.332Z,100386.97
2023-04-28T12:36:08.668Z,100383.06
2023-04-28T12:38:54.649Z,100385.16
2023-04-28T12:41:40.588Z,100372.66
2023-04-28T12:44:28.536Z,100323.44
2023-04-28T12:47:14.707Z,100378.22
2023-04-28T12:50:00.199Z,100372.19
2023-04-28T12:52:46.376Z,100368.31
2023-04-28T12:55:32.170Z,100358.69
2023-04-28T12:58:18.508Z,100363.25
2023-04-28T13:01:04.714Z,100356.47
2023-04-28T13:03:53.732Z,100350.28
2023-04-28T13:06:44.154Z,100344.44
2023-04-28T13:09:30.275Z,100352.84
2023-04-28T13:12:16.078Z,100345.25
2023-04-28T13:15:02.968Z,100326.16
2023-04-28T13:17:49.396Z,100334.03
2023-04-28T13:20:35.512Z,100313.31
2023-04-28T13:23:21.598Z,100316.91
2023-04-28T13:26:08.195Z,100327.38
2023-04-28T13:28:54.103Z,100317.31
2023-04-28T13:31:41.004Z,100314.09
2023-04-28T13:34:27.231Z,100266.69
2023-04-28T13:37:13.336Z,100316.97
2023-04-28T13:39:59.600Z,100317.16
2023-04-28T13:42:46.933Z,100279.44
2023-04-28T13:45:32.769Z,100306.47
2023-04-28T13:48:19.198Z,100294.66
2023-04-28T13:51:06.251Z,100293.50
2023-04-28T13:53:52.511Z,100268.81
2023-04-28T13:56:38.558Z,100278.84
2023-04-28T13:59:24.926Z,100284.56
2023-04-28T14:02:11.741Z,100279.94
2023-04-28T14:04:57.791Z,100269.03
2023-04-28T14:07:44.460Z,100244.81
2023-04-28T14:10:31.162Z,100246.88
2023-04-28T14:13:17.880Z,100269.03
2023-04-28T14:16:04.397Z,100257.72
2023-04-28T14:18:50.309Z,100273.44
2023-04-28T14:21:37.685Z,100270.88
2023-04-28T14:24:24.230Z,100258.03
2023-04-28T14:27:11.189Z,100251.84
2023-04-28T14:29:57.050Z,100244.06
2023-04-28T14:32:43.377Z,100246.97
2023-04-28T14:35:30.386Z,100235.31
2023-04-28T14:38:16.578Z,100240.97
2023-04-28T14:41:02.493Z,100221.25
2023-04-28T14:43:49.303Z,100237.59
2023-04-28T14:46:34.850Z,100231.09
2023-04-28T14:49:21.031Z,100233.03
2023-04-28T14:52:06.576Z,100224.63
2023-04-28T14:54:54.101Z,100231.75
2023-04-28T14:57:40.160Z,100220.72
2023-04-28T15:00:26.079Z,100220.25
2023-04-28T15:03:12.217Z,100212.78
2023-04-28T15:05:58.363Z,100203.25
2023-04-28T15:08:44.076Z,100207.72
2023-04-28T15:11:32.086Z,100201.06
2023-04-28T15:14:18.620Z,100197.16
2023-04-28T15:17:08.099Z,100192.00
2023-04-28T15:19:54.058Z,100184.66
2023-04-28T15:22:40.186Z,100180.75
2023-04-28T15:25:26.601Z,100164.16
2023-04-28T15:28:12.885Z,100125.09
2023-04-28T15:30:58.837Z,100183.50
2023-04-28T15:33:44.970Z,100169.72
2023-04-28T15:36:30.661Z,100175.34
2023-04-28T15:39:16.968Z,100174.69
2023-04-28T15:42:04.057Z,100172.75
2023-04-28T15:44:50.578Z,100148.78
2023-04-28T15:47:38.979Z,100162.97
2023-04-28T15:50:25.121Z,100166.09
2023-04-28T15:53:10.812Z,100155.84
2023-04-28T15:55:58.204Z,100156.44
2023-04-28T15:58:43.937Z,100156.31
2023-04-28T16:01:30.208Z,100149.25
2023-04-28T16:04:16.288Z,100148.56
2023-04-28T16:07:02.568Z,100121.03
2023-04-28T16:09:48.609Z,100144.53
2023-04-28T16:12:34.707Z,100146.25
2023-04-28T16:15:20.646Z,100143.13
2023-04-28T16:18:07.174Z,100141.88
2023-04-28T16:20:53.857Z,100141.63
2023-04-28T16:23:40.470Z,100143.44
2023-04-28T16:26:26.200Z,100137.94
2023-04-28T16:29:14.278Z,100107.25
2023-04-28T16:32:00.507Z,100123.13
2023-04-28T16:34:47.246Z,100139.28
2023-04-28T16:37:33.011Z,100130.41
2023-04-28T16:40:18.898Z,100133.47
2023-04-28T16:43:04.938Z,100125.78
2023-04-28T16:45:51.504Z,100128.19
2023-04-28T16:48:37.828Z,100125.78
2023-04-28T16:51:24.151Z,100114.97
2023-04-28T16:54:09.778Z,100106.34
2023-04-28T16:56:56.593Z,100113.81
2023-04-28T16:59:42.088Z,100115.63
2023-04-28T17:02:29.585Z,100114.97
2023-04-28T17:05:15.650Z,100107.34
2023-04-28T17:08:02.594Z,100080.41
2023-04-28T17:10:48.547Z,100077.97
2023-04-28T17:13:35.337Z,100096.47
2023-04-28T17:16:21.262Z,100110.19
2023-04-28T17:19:08.280Z,100109.91
2023-04-28T17:21:55.726Z,100098.16
2023-04-28T17:24:41.679Z,100107.88
2023-04-28T17:27:27.482Z,100102.09
2023-04-28T17:30:13.683Z,100084.91
2023-04-28T17:32:59.444Z,100095.06
2023-04-28T17:35:45.842Z,100076.75
2023-04-28T17:38:32.301Z,100105.00
2023-04-28T17:41:19.887Z,100101.81
2023-04-28T17:44:05.940Z,100088.78
2023-04-28T17:46:52.101Z,100093.81
2023-04-28T17:49:38.571Z,100100.66
2023-04-28T17:52:24.806Z,100095.03
2023-04-28T17:55:10.248Z,100073.28
2023-04-28T17:57:56.258Z,100100.75
2023-04-28T18:00:42.118Z,100099.19
2023-04-28T18:03:28.436Z,100110.22
2023-04-28T18:06:14.586Z,100106.34
2023-04-28T18:09:00.557Z,100076.63
2023-04-28T18:11:47.412Z,100109.94
2023-04-28T18:14:33.357Z,100093.31
2023-04-28T18:17:18.725Z,100106.41
2023-04-28T18:20:06.459Z,100097.03
2023-04-28T18:22:52.326Z,100066.66
2023-04-28T18:25:38.604Z,100078.63
2023-04-28T18:28:24.945Z,100105.47
2023-04-28T18:31:11.280Z,100108.63
2023-04-28T18:33:57.288Z,100097.34
2023-04-28T18:36:43.651Z,100072.59
2023-04-28T18:39:29.589Z,100110.91
2023-04-28T18:42:16.352Z,100102.00
2023-04-28T18:45:02.665Z,100097.47
2023-04-28T18:47:50.587Z,100100.88
2023-04-28T18:50:37.037Z,100071.59
2023-04-28T18:53:23.041Z,100094.56
2023-04-28T18:56:08.530Z,100103.91
2023-04-28T18:58:55.274Z,100088.53
2023-04-28T19:01:41.436Z,100100.84
2023-04-28T19:04:28.463Z,100062.00
2023-04-28T19:07:14.299Z,100080.09
2023-04-28T19:10:00.536Z,100102.88
2023-04-28T19:12:46.256Z,100072.78
2023-04-28T19:15:33.170Z,100090.72
2023-04-28T19:18:18.966Z,100105.44
2023-04-28T19:21:05.325Z,100100.09
2023-04-28T19:23:51.254Z,100103.16
2023-04-28T19:26:37.351Z,100092.50
2023-04-28T19:29:23.438Z,100082.16
2023-04-28T19:32:12.274Z,100090.56
2023-04-28T19:34:58.598Z,100086.22
2023-04-28T19:37:45.392Z,100089.25
2023-04-28T19:40:31.588Z,100078.13
2023-04-28T19:43:18.136Z,100085.38
2023-04-28T19:46:04.097Z,100084.59
2023-04-28T19:48:50.598Z,100085.38
2023-04-28T19:51:37.166Z,100082.97
2023-04-28T19:54:23.659Z,100084.41
2023-04-28T19:57:09.327Z,100057.69
2023-04-28T19:59:56.447Z,100080.38
2023-04-28T20:02:42.924Z,100083.41
2023-04-28T20:05:29.554Z,100054.13
2023-04-28T20:08:16.409Z,100079.50
2023-04-28T20:11:02.463Z,100066.75
2023-04-28T20:13:48.670Z,100077.41
2023-04-28T20:16:34.689Z,100079.50
2023-04-28T20:19:20.738Z,100083.06
2023-04-28T20:22:08.630Z,100044.28
2023-04-28T20:24:55.748Z,100071.59
2023-04-28T20:27:42.086Z,100063.88
2023-04-28T20:30:28.322Z,100049.75
2023-04-28T20:33:16.123Z,100066.75
2023-04-28T20:36:02.140Z,100065.63
2023-04-28T20:38:48.492Z,100035.84
2023-04-28T20:41:34.135Z,100062.84
2023-04-28T20:44:20.209Z,100058.31
2023-04-28T20:47:05.838Z,100051.66
2023-04-28T20:49:52.559Z,100061.50
2023-04-28T20:52:38.717Z,100052.28
2023-04-28T20:55:24.834Z,100059.22
2023-04-28T20:58:10.903Z,100031.03
2023-04-28T21:00:57.320Z,100055.44
2023-04-28T21:03:43.584Z,100050.59
2023-04-28T21:06:29.855Z,100050.41
2023-04-28T21:09:15.412Z,100042.16
2023-04-28T21:12:02.414Z,100029.97
2023-04-28T21:14:47.949Z,100041.28
2023-04-28T21:17:34.160Z,100033.69
2023-04-28T21:20:20.797Z,100039.19
2023-04-28T21:23:07.629Z,100045.28
2023-04-28T21:25:53.741Z,100032.69
2023-04-28T21:28:40.170Z,100039.94
2023-04-28T21:31:26.664Z,100017.16
2023-04-28T21:34:13.184Z,100022.31
2023-04-28T21:36:59.041Z,100005.34
2023-04-28T21:39:45.449Z,100023.25
2023-04-28T21:42:32.066Z,100004.84
2023-04-28T21:45:18.129Z,100004.50
2023-04-28T21:48:03.970Z,100002.22
2023-04-28T21:50:50.081Z,100017.28
2023-04-28T21:53:36.366Z,99961.47
2023-04-28T21:56:22.557Z,99999.50
2023-04-28T21:59:08.356Z,99984.09
2023-04-28T22:01:55.003Z,100000.75
2023-04-28T22:04:41.033Z,99999.75
2023-04-28T22:07:28.397Z,99953.44
2023-04-28T22:10:14.512Z,99997.09
2023-04-28T22:13:00.425Z,99998.84
2023-04-28T22:15:46.627Z,99981.06
2023-04-28T22:18:32.864Z,99958.72
2023-04-28T22:21:19.393Z,99987.03
2023-04-28T22:24:06.854Z,99972.28
2023-04-28T22:26:52.584Z,99980.06
2023-04-28T22:29:38.825Z,99976.31
2023-04-28T22:32:25.777Z,99968.09
2023-04-28T22:35:14.511Z,99970.72
2023-04-28T22:38:00.423Z,99966.50
2023-04-28T22:40:46.587Z,99966.69
2023-04-28T22:43:32.391Z,99954.75
2023-04-28T22:46:18.406Z,99968.59
2023-04-28T22:49:05.024Z,99926.72
2023-04-28T22:51:51.210Z,99940.50
2023-04-28T22:54:39.122Z,99961.91
2023-04-28T22:57:25.107Z,99958.84
2023-04-28T23:00:11.814Z,99955.41
2023-04-28T23:02:58.248Z,99951.13
2023-04-28T23:05:44.004Z,99930.91
2023-04-28T23:08:29.932Z,99962.38
2023-04-28T23:11:15.842Z,99949.63
2023-04-28T23:14:01.714Z,99948.44
2023-04-28T23:16:47.728Z,99937.72
2023-04-28T23:19:39.130Z,99940.34
2023-04-28T23:22:25.479Z,99950.28
2023-04-28T23:25:11.903Z,99943.22
2023-04-28T23:27:57.836Z,99942.59
2023-04-28T23:30:43.980Z,99944.50
2023-04-28T23:33:29.966Z,99943.47
2023-04-28T23:36:16.008Z,99905.16
2023-04-28T23:39:02.465Z,99928.91
2023-04-28T23:41:48.536Z,99874.72
2023-04-28T23:44:34.487Z,99928.28
2023-04-28T23:47:20.224Z,99917.28
2023-04-28T23:50:06.966Z,99917.28
2023-04-28T23:52:53.096Z,99922.13
2023-04-28T23:55:39.149Z,99916.34
2023-04-28T23:58:26.475Z,99916.03
